createdAt,value
2022-11-20T00:02:49.778Z,100435.46
2022-11-20T00:05:44.663Z,100436.81
2022-11-20T00:08:39.523Z,100434.02
2022-11-20T00:11:35.372Z,100431.14
2022-11-20T00:14:30.109Z,100431.38
2022-11-20T00:17:24.981Z,100431.76
2022-11-20T00:20:20.723Z,100428.67
2022-11-20T00:23:15.505Z,100431.94
2022-11-20T00:26:12.095Z,100437.70
2022-11-20T00:29:07.271Z,100440.71
2022-11-20T00:32:02.170Z,100437.30
2022-11-20T00:34:56.899Z,100439.79
2022-11-20T00:37:51.789Z,100442.11
2022-11-20T00:40:49.869Z,100437.98
2022-11-20T00:43:48.622Z,100434.59
2022-11-20T00:46:43.425Z,100435.09
2022-11-20T00:49:38.163Z,100434.19
2022-11-20T00:52:32.987Z,100433.86
2022-11-20T00:55:27.774Z,100432.96
2022-11-20T00:58:22.699Z,100427.88
2022-11-20T01:01:19.444Z,100428.79
2022-11-20T01:04:14.562Z,100431.64
2022-11-20T01:07:09.425Z,100430.05
2022-11-20T01:10:04.564Z,100431.98
2022-11-20T01:13:13.060Z,100432.95
2022-11-20T01:16:11.104Z,100433.49
2022-11-20T01:19:08.199Z,100431.90
2022-11-20T01:22:02.926Z,100432.30
2022-11-20T01:24:57.849Z,100430.99
2022-11-20T01:27:52.587Z,100422.94
2022-11-20T01:30:47.408Z,100419.95
2022-11-20T01:33:42.423Z,100422.08
2022-11-20T01:36:37.901Z,100417.66
2022-11-20T01:39:32.903Z,100419.09
2022-11-20T01:42:45.540Z,100423.14
2022-11-20T01:46:17.531Z,100422.05
2022-11-20T01:49:17.032Z,100419.70
2022-11-20T01:52:17.228Z,100417.38
2022-11-20T01:55:15.605Z,100417.91
2022-11-20T01:58:10.302Z,100417.78
2022-11-20T02:01:05.791Z,100417.41
2022-11-20T02:04:00.668Z,100417.25
2022-11-20T02:06:57.664Z,100420.11
2022-11-20T02:09:57.398Z,100415.89
2022-11-20T02:13:11.312Z,100413.37
2022-11-20T02:16:06.595Z,100410.09
2022-11-20T02:19:03.560Z,100406.16
2022-11-20T02:22:04.659Z,100405.27
2022-11-20T02:24:59.443Z,100403.51
2022-11-20T02:27:54.194Z,100398.07
2022-11-20T02:30:48.931Z,100401.05
2022-11-20T02:33:43.765Z,100402.85
2022-11-20T02:36:38.920Z,100400.92
2022-11-20T02:39:33.723Z,100402.02
2022-11-20T02:42:28.435Z,100400.01
2022-11-20T02:45:23.760Z,100396.86
2022-11-20T02:48:18.505Z,100391.02
2022-11-20T02:51:13.572Z,100388.40
2022-11-20T02:54:08.646Z,100391.26
2022-11-20T02:57:03.442Z,100392.78
2022-11-20T02:59:58.155Z,100399.48
2022-11-20T03:02:52.948Z,100398.13
2022-11-20T03:05:47.724Z,100400.38
2022-11-20T03:08:42.527Z,100396.67
2022-11-20T03:11:37.420Z,100389.80
2022-11-20T03:14:32.399Z,100390.85
2022-11-20T03:17:27.276Z,100391.22
2022-11-20T03:20:22.308Z,100387.05
2022-11-20T03:23:17.066Z,100386.23
2022-11-20T03:26:17.702Z,100389.30
2022-11-20T03:29:12.445Z,100394.60
2022-11-20T03:32:07.612Z,100394.80
2022-11-20T03:35:02.346Z,100394.48
2022-11-20T03:37:57.032Z,100392.67
2022-11-20T03:40:51.702Z,100391.83
2022-11-20T03:43:48.836Z,100389.19
2022-11-20T03:46:43.966Z,100389.42
2022-11-20T03:49:38.713Z,100389.13
2022-11-20T03:52:33.769Z,100393.58
2022-11-20T03:55:28.588Z,100397.20
2022-11-20T03:58:23.240Z,100393.54
2022-11-20T04:01:19.998Z,100396.20
2022-11-20T04:04:14.871Z,100401.39
2022-11-20T04:07:10.196Z,100398.16
2022-11-20T04:10:05.089Z,100395.42
2022-11-20T04:13:00.104Z,100394.52
2022-11-20T04:15:55.064Z,100392.27
2022-11-20T04:18:53.374Z,100398.23
2022-11-20T04:21:48.262Z,100398.45
2022-11-20T04:24:43.448Z,100396.39
2022-11-20T04:27:38.275Z,100390.67
2022-11-20T04:30:32.985Z,100384.15
2022-11-20T04:33:30.045Z,100382.75
2022-11-20T04:36:28.912Z,100379.90
2022-11-20T04:39:22.288Z,100380.17
2022-11-20T04:42:32.628Z,100384.55
2022-11-20T04:45:27.499Z,100387.29
2022-11-20T04:48:22.653Z,100387.21
2022-11-20T04:51:17.440Z,100383.52
2022-11-20T04:54:12.277Z,100378.23
2022-11-20T04:57:11.435Z,100383.89
2022-11-20T05:00:12.451Z,100379.48
2022-11-20T05:03:07.439Z,100382.83
2022-11-20T05:06:03.677Z,100380.88
2022-11-20T05:08:58.544Z,100379.08
2022-11-20T05:11:53.316Z,100381.89
2022-11-20T05:14:48.344Z,100383.44
2022-11-20T05:17:43.539Z,100376.80
2022-11-20T05:20:38.515Z,100375.73
2022-11-20T05:23:34.225Z,100369.77
2022-11-20T05:26:29.151Z,100366.33
2022-11-20T05:29:23.971Z,100362.77
2022-11-20T05:32:18.861Z,100366.62
2022-11-20T05:35:14.267Z,100361.23
2022-11-20T05:38:09.429Z,100360.66
2022-11-20T05:41:11.007Z,100365.50
2022-11-20T05:44:05.950Z,100366.33
2022-11-20T05:47:00.581Z,100364.33
2022-11-20T05:49:55.787Z,100362.73
2022-11-20T05:52:50.679Z,100361.84
2022-11-20T05:55:45.703Z,100358.78
2022-11-20T05:58:40.580Z,100358.53
2022-11-20T06:01:36.975Z,100352.45
2022-11-20T06:04:31.648Z,100350.02
2022-11-20T06:07:26.415Z,100354.77
2022-11-20T06:10:21.749Z,100355.12
2022-11-20T06:13:16.516Z,100356.02
2022-11-20T06:16:12.188Z,100355.45
2022-11-20T06:19:07.109Z,100356.52
2022-11-20T06:22:01.799Z,100357.45
2022-11-20T06:24:56.550Z,100360.55
2022-11-20T06:27:51.406Z,100368.36
2022-11-20T06:30:50.300Z,100365.84
2022-11-20T06:33:45.502Z,100365.02
2022-11-20T06:36:40.283Z,100359.82
2022-11-20T06:39:35.112Z,100357.56
2022-11-20T06:42:29.956Z,100353.20
2022-11-20T06:45:24.725Z,100357.98
2022-11-20T06:48:19.469Z,100360.37
2022-11-20T06:51:14.279Z,100360.85
2022-11-20T06:54:09.680Z,100361.92
2022-11-20T06:57:04.976Z,100354.90
2022-11-20T06:59:59.910Z,100344.58
2022-11-20T07:02:54.646Z,100350.59
2022-11-20T07:05:49.435Z,100350.48
2022-11-20T07:08:44.354Z,100349.63
2022-11-20T07:11:39.130Z,100342.80
2022-11-20T07:14:33.828Z,100338.17
2022-11-20T07:17:28.566Z,100341.96
2022-11-20T07:24:20.533Z,100345.27
2022-11-20T07:27:11.053Z,100341.64
2022-11-20T07:30:01.530Z,100345.30
2022-11-20T07:32:54.774Z,100346.31
2022-11-20T07:35:45.784Z,100347.66
2022-11-20T07:38:36.307Z,100349.79
2022-11-20T07:41:28.077Z,100348.36
2022-11-20T07:44:19.567Z,100347.63
2022-11-20T07:47:10.487Z,100340.95
2022-11-20T07:50:01.101Z,100342.85
2022-11-20T07:52:52.652Z,100341.66
2022-11-20T07:55:43.203Z,100335.95
2022-11-20T07:58:34.845Z,100333.52
2022-11-20T08:01:25.748Z,100331.27
2022-11-20T08:04:16.659Z,100330.13
2022-11-20T08:07:07.402Z,100329.81
2022-11-20T08:09:58.530Z,100328.50
2022-11-20T08:13:08.565Z,100325.61
2022-11-20T08:15:59.501Z,100325.49
2022-11-20T08:18:50.343Z,100336.17
2022-11-20T08:21:41.167Z,100331.48
2022-11-20T08:24:31.770Z,100333.08
2022-11-20T08:27:22.365Z,100321.71
2022-11-20T08:30:16.328Z,100314.86
2022-11-20T08:33:08.927Z,100312.42
2022-11-20T08:36:02.822Z,100307.70
2022-11-20T08:38:54.842Z,100309.88
2022-11-20T08:41:45.527Z,100306.73
2022-11-20T08:44:36.253Z,100309.20
2022-11-20T08:47:26.939Z,100309.27
2022-11-20T08:50:18.249Z,100306.02
2022-11-20T08:53:09.009Z,100305.92
2022-11-20T08:56:00.487Z,100302.77
2022-11-20T08:59:20.254Z,100306.92
2022-11-20T09:02:03.956Z,100304.30
2022-11-20T09:04:54.589Z,100302.80
2022-11-20T09:07:45.649Z,100296.89
2022-11-20T09:10:40.105Z,100295.80
2022-11-20T09:13:31.243Z,100306.15
2022-11-20T09:16:21.988Z,100296.90
2022-11-20T09:19:34.619Z,100299.09
2022-11-20T09:22:23.487Z,100299.15
2022-11-20T09:25:14.512Z,100296.01
2022-11-20T09:28:05.537Z,100293.64
2022-11-20T09:30:56.277Z,100291.94
2022-11-20T09:33:46.868Z,100290.23
2022-11-20T09:36:37.849Z,100285.74
2022-11-20T09:39:28.558Z,100285.83
2022-11-20T09:42:35.817Z,100283.29
2022-11-20T09:45:35.198Z,100279.50
2022-11-20T09:49:00.130Z,100273.77
2022-11-20T09:51:58.517Z,100277.17
2022-11-20T09:54:49.238Z,100270.36
2022-11-20T09:57:42.078Z,100275.80
2022-11-20T10:00:33.254Z,100269.67
2022-11-20T10:03:27.769Z,100259.68
2022-11-20T10:06:22.273Z,100258.50
2022-11-20T10:09:24.368Z,100254.20
2022-11-20T10:12:19.047Z,100253.48
2022-11-20T10:15:18.514Z,100257.95
2022-11-20T10:18:24.384Z,100264.55
2022-11-20T10:21:21.145Z,100268.05
2022-11-20T10:24:29.049Z,100265.83
2022-11-20T10:27:43.412Z,100265.81
2022-11-20T10:30:36.195Z,100263.19
2022-11-20T10:33:29.082Z,100264.84
2022-11-20T10:36:28.376Z,100262.11
2022-11-20T10:39:22.317Z,100255.79
2022-11-20T10:42:15.579Z,100255.48
2022-11-20T10:45:16.666Z,100256.29
2022-11-20T10:48:17.140Z,100257.92
2022-11-20T10:51:16.576Z,100257.98
2022-11-20T10:54:18.102Z,100256.52
2022-11-20T10:57:15.726Z,100254.68
2022-11-20T11:00:09.377Z,100251.16
2022-11-20T11:03:03.386Z,100247.55
2022-11-20T11:05:56.597Z,100245.48
2022-11-20T11:08:47.810Z,100239.64
2022-11-20T11:11:38.639Z,100239.20
2022-11-20T11:14:29.408Z,100233.44
2022-11-20T11:17:30.962Z,100230.53
2022-11-20T11:20:22.695Z,100224.75
2022-11-20T11:23:31.719Z,100223.27
2022-11-20T11:26:24.038Z,100220.98
2022-11-20T11:29:21.185Z,100226.17
2022-11-20T11:32:15.915Z,100221.89
2022-11-20T11:35:19.040Z,100229.41
2022-11-20T11:38:15.376Z,100226.03
2022-11-20T11:41:06.171Z,100225.28
2022-11-20T11:44:19.579Z,100225.63
2022-11-20T11:47:12.547Z,100224.54
2022-11-20T11:50:17.851Z,100219.13
2022-11-20T11:53:14.228Z,100211.16
2022-11-20T11:56:08.905Z,100212.44
2022-11-20T11:59:01.114Z,100212.05
2022-11-20T12:01:55.586Z,100207.12
2022-11-20T12:04:50.558Z,100207.17
2022-11-20T12:07:47.550Z,100204.46
2022-11-20T12:10:47.609Z,100195.02
2022-11-20T12:13:45.603Z,100198.25
2022-11-20T12:16:38.998Z,100200.67
2022-11-20T12:19:29.606Z,100199.16
2022-11-20T12:22:29.371Z,100198.42
2022-11-20T12:25:22.786Z,100192.05
2022-11-20T12:28:40.153Z,100197.32
2022-11-20T12:31:46.948Z,100196.76
2022-11-20T12:34:51.881Z,100195.98
2022-11-20T12:37:49.117Z,100194.51
2022-11-20T12:40:44.037Z,100183.05
2022-11-20T12:43:55.220Z,100188.41
2022-11-20T12:46:47.364Z,100186.70
2022-11-20T12:49:39.976Z,100181.71
2022-11-20T12:52:42.205Z,100178.61
2022-11-20T12:55:45.231Z,100175.83
2022-11-20T12:58:40.789Z,100172.72
2022-11-20T13:01:43.033Z,100171.50
2022-11-20T13:05:10.057Z,100163.65
2022-11-20T13:08:00.604Z,100165.52
2022-11-20T13:10:55.427Z,100163.41
2022-11-20T13:14:05.721Z,100160.87
2022-11-20T13:17:03.421Z,100156.69
2022-11-20T13:19:59.144Z,100151.38
2022-11-20T13:22:52.145Z,100149.29
2022-11-20T13:25:42.818Z,100141.97
2022-11-20T13:28:33.876Z,100138.08
2022-11-20T13:31:35.550Z,100144.55
2022-11-20T13:34:27.855Z,100147.91
2022-11-20T13:37:29.871Z,100152.13
2022-11-20T13:40:25.080Z,100147.70
2022-11-20T13:43:35.866Z,100147.08
2022-11-20T13:46:37.389Z,100151.71
2022-11-20T13:49:32.559Z,100148.55
2022-11-20T13:52:46.231Z,100144.80
2022-11-20T13:55:39.106Z,100146.42
2022-11-20T13:58:41.482Z,100139.59
2022-11-20T14:01:32.672Z,100135.02
2022-11-20T14:04:28.445Z,100133.45
2022-11-20T14:07:19.836Z,100130.55
2022-11-20T14:10:27.078Z,100130.95
2022-11-20T14:13:22.424Z,100128.52
2022-11-20T14:16:13.380Z,100125.10
2022-11-20T14:19:30.647Z,100125.30
2022-11-20T14:22:23.064Z,100125.86
2022-11-20T14:25:23.768Z,100127.29
2022-11-20T14:28:21.892Z,100127.24
2022-11-20T14:31:18.913Z,100125.60
2022-11-20T14:34:16.519Z,100119.99
2022-11-20T14:37:16.394Z,100116.14
2022-11-20T14:40:29.325Z,100118.81
2022-11-20T14:43:23.797Z,100106.74
2022-11-20T14:46:14.818Z,100104.45
2022-11-20T14:49:05.752Z,100102.53
2022-11-20T14:52:03.066Z,100100.44
2022-11-20T14:54:54.971Z,100098.55
2022-11-20T14:57:46.178Z,100097.02
2022-11-20T15:00:37.659Z,100094.65
2022-11-20T15:03:35.444Z,100087.55
2022-11-20T15:06:29.849Z,100083.06
2022-11-20T15:09:20.496Z,100080.32
2022-11-20T15:12:19.100Z,100081.30
2022-11-20T15:15:12.610Z,100072.88
2022-11-20T15:18:03.266Z,100073.54
2022-11-20T15:20:53.856Z,100070.09
2022-11-20T15:23:44.356Z,100068.29
2022-11-20T15:26:34.887Z,100067.27
2022-11-20T15:29:25.474Z,100068.60
2022-11-20T15:32:16.046Z,100067.48
2022-11-20T15:35:09.275Z,100063.11
2022-11-20T15:37:59.959Z,100064.05
2022-11-20T15:40:50.629Z,100060.61
2022-11-20T15:43:41.303Z,100055.77
2022-11-20T15:46:37.927Z,100055.31
2022-11-20T15:49:28.745Z,100055.23
2022-11-20T15:52:19.437Z,100053.08
2022-11-20T15:55:12.920Z,100051.27
2022-11-20T15:58:03.546Z,100050.29
2022-11-20T16:00:54.293Z,100046.89
2022-11-20T16:03:45.231Z,100045.83
2022-11-20T16:06:35.801Z,100043.56
2022-11-20T16:09:26.425Z,100043.23
2022-11-20T16:12:37.060Z,100048.27
2022-11-20T16:15:46.063Z,100041.91
2022-11-20T16:18:36.662Z,100044.09
2022-11-20T16:21:31.289Z,100046.43
2022-11-20T16:24:22.497Z,100045.37
2022-11-20T16:27:13.611Z,100040.02
2022-11-20T16:30:12.108Z,100039.47
2022-11-20T16:33:02.976Z,100042.45
2022-11-20T16:35:53.630Z,100041.39
2022-11-20T16:38:44.206Z,100042.42
2022-11-20T16:41:35.999Z,100040.27
2022-11-20T16:44:27.059Z,100043.44
2022-11-20T16:47:17.925Z,100040.42
2022-11-20T16:50:10.864Z,100039.19
2022-11-20T16:53:01.579Z,100037.23
2022-11-20T16:55:52.417Z,100036.09
2022-11-20T16:58:43.038Z,100030.01
2022-11-20T17:01:35.518Z,100024.08
2022-11-20T17:04:26.695Z,100029.56
2022-11-20T17:07:17.700Z,100020.56
2022-11-20T17:10:10.121Z,100021.54
2022-11-20T17:13:00.736Z,100019.88
2022-11-20T17:15:51.864Z,100020.87
2022-11-20T17:18:42.443Z,100018.95
2022-11-20T17:21:35.457Z,100016.30
2022-11-20T17:24:31.652Z,100018.67
2022-11-20T17:27:22.773Z,100013.63
2022-11-20T17:30:14.556Z,100013.73
2022-11-20T17:33:05.298Z,100007.80
2022-11-20T17:35:56.515Z,100007.02
2022-11-20T17:38:47.376Z,100008.87
2022-11-20T17:41:37.980Z,100006.66
2022-11-20T17:44:28.584Z,100006.48
2022-11-20T17:47:19.300Z,100010.34
2022-11-20T17:50:11.519Z,100015.16
2022-11-20T17:53:02.540Z,100003.80
2022-11-20T17:56:16.147Z,100000.41
2022-11-20T17:59:07.564Z,100004.90
2022-11-20T18:02:03.290Z,100006.83
2022-11-20T18:04:54.773Z,100001.27
2022-11-20T18:07:45.570Z,99998.56
2022-11-20T18:10:36.784Z,99997.95
2022-11-20T18:13:48.067Z,99998.16
2022-11-20T18:16:42.305Z,99994.95
2022-11-20T18:19:38.741Z,99994.36
2022-11-20T18:22:31.723Z,99992.55
2022-11-20T18:25:22.346Z,99989.88
2022-11-20T18:28:13.386Z,99986.48
2022-11-20T18:31:07.479Z,99977.10
2022-11-20T18:33:58.472Z,99976.67
2022-11-20T18:36:49.120Z,99973.43
2022-11-20T18:39:39.681Z,99971.19
2022-11-20T18:42:49.249Z,99968.98
2022-11-20T18:45:39.816Z,99972.50
2022-11-20T18:48:31.808Z,99973.59
2022-11-20T18:51:22.546Z,99968.03
2022-11-20T18:54:13.295Z,99966.72
2022-11-20T18:57:05.039Z,99968.24
2022-11-20T18:59:55.766Z,99963.86
2022-11-20T19:02:47.969Z,99964.83
2022-11-20T19:05:39.515Z,99967.33
2022-11-20T19:08:30.147Z,99962.55
2022-11-20T19:11:20.785Z,99959.48
2022-11-20T19:14:11.808Z,99954.83
2022-11-20T19:17:02.414Z,99954.73
2022-11-20T19:19:54.311Z,99951.67
2022-11-20T19:22:45.004Z,99953.14
2022-11-20T19:25:38.337Z,99949.95
2022-11-20T19:28:31.037Z,99946.84
2022-11-20T19:31:24.705Z,99945.36
2022-11-20T19:34:16.201Z,99944.84
2022-11-20T19:37:06.804Z,99944.30
2022-11-20T19:39:59.040Z,99945.05
2022-11-20T19:42:49.730Z,99950.39
2022-11-20T19:45:40.777Z,99951.79
2022-11-20T19:48:32.714Z,99949.58
2022-11-20T19:51:26.721Z,99949.81
2022-11-20T19:54:18.141Z,99950.67
2022-11-20T19:57:08.818Z,99949.40
2022-11-20T19:59:59.467Z,99951.23
2022-11-20T20:02:50.011Z,99952.18
2022-11-20T20:05:41.023Z,99953.77
2022-11-20T20:08:31.950Z,99952.06
2022-11-20T20:11:24.009Z,99953.86
2022-11-20T20:14:16.042Z,99954.84
2022-11-20T20:17:06.832Z,99958.14
2022-11-20T20:19:57.655Z,99958.40
2022-11-20T20:22:48.294Z,99956.80
2022-11-20T20:25:38.840Z,99961.50
2022-11-20T20:28:30.326Z,99957.42
2022-11-20T20:31:23.104Z,99960.27
2022-11-20T20:34:13.839Z,99958.55
2022-11-20T20:37:04.849Z,99960.73
2022-11-20T20:39:55.525Z,99961.10
2022-11-20T20:42:46.200Z,99961.25
2022-11-20T20:45:37.074Z,99960.33
2022-11-20T20:48:28.398Z,99960.48
2022-11-20T20:51:18.948Z,99960.15
2022-11-20T20:54:09.567Z,99959.98
2022-11-20T20:57:00.114Z,99962.15
2022-11-20T20:59:51.956Z,99964.36
2022-11-20T21:02:43.065Z,99967.88
2022-11-20T21:05:33.824Z,99967.64
2022-11-20T21:08:24.935Z,99956.52
2022-11-20T21:11:17.505Z,99953.89
2022-11-20T21:14:08.080Z,99946.13
2022-11-20T21:16:59.097Z,99948.59
2022-11-20T21:19:49.702Z,99950.38
2022-11-20T21:22:40.434Z,99946.28
2022-11-20T21:25:31.485Z,99948.38
2022-11-20T21:28:22.490Z,99950.17
2022-11-20T21:31:14.716Z,99953.20
2022-11-20T21:34:06.737Z,99947.92
2022-11-20T21:36:57.976Z,99950.78
2022-11-20T21:39:51.297Z,99951.14
2022-11-20T21:42:41.904Z,99949.39
2022-11-20T21:45:32.638Z,99948.89
2022-11-20T21:48:23.406Z,99950.20
2022-11-20T21:51:15.178Z,99951.35
2022-11-20T21:54:05.967Z,99952.63
2022-11-20T21:56:56.887Z,99950.21
2022-11-20T21:59:47.537Z,99949.55
2022-11-20T22:02:40.016Z,99939.48
2022-11-20T22:05:30.684Z,99937.97
2022-11-20T22:08:21.364Z,99935.35
2022-11-20T22:11:13.936Z,99936.28
2022-11-20T22:14:23.941Z,99935.48
2022-11-20T22:17:15.215Z,99936.58
2022-11-20T22:20:09.539Z,99939.27
2022-11-20T22:23:00.348Z,99941.48
2022-11-20T22:25:50.863Z,99937.83
2022-11-20T22:28:41.666Z,99939.80
2022-11-20T22:31:32.715Z,99940.20
2022-11-20T22:34:23.667Z,99940.77
2022-11-20T22:37:15.152Z,99938.08
2022-11-20T22:40:09.376Z,99942.56
2022-11-20T22:42:59.960Z,99948.16
2022-11-20T22:45:50.640Z,99950.17
2022-11-20T22:48:42.409Z,99951.97
2022-11-20T22:51:34.600Z,99951.52
2022-11-20T22:54:25.460Z,99951.11
2022-11-20T22:57:16.526Z,99944.62
2022-11-20T23:00:11.925Z,99939.14
2022-11-20T23:03:02.987Z,99941.89
2022-11-20T23:05:53.639Z,99944.10
2022-11-20T23:08:44.287Z,99942.18
2022-11-20T23:11:35.277Z,99941.38
2022-11-20T23:14:27.989Z,99940.48
2022-11-20T23:17:18.751Z,99939.86
2022-11-20T23:20:13.048Z,99937.76
2022-11-20T23:23:03.695Z,99937.52
2022-11-20T23:25:54.398Z,99934.48
2022-11-20T23:28:45.543Z,99935.70
2022-11-20T23:31:36.560Z,99931.27
2022-11-20T23:34:27.430Z,99926.52
2022-11-20T23:37:18.218Z,99923.86
2022-11-20T23:40:11.935Z,99920.42
2022-11-20T23:43:14.803Z,99923.64
2022-11-20T23:46:05.685Z,99916.23
2022-11-20T23:48:56.226Z,99919.74
2022-11-20T23:51:46.902Z,99914.61
2022-11-20T23:54:37.691Z,99913.81
2022-11-20T23:57:28.297Z,99912.98
